Metar z pełnej godziny Komunikat METAR ze strony awiacja.imgw.pl Metar G00 EPKT METAR EPKT 291900Z 34009KT CAVOK 12/01 Q1021 =